Time;durP1;ratioP1;P1;durP2;ratioP2;P2;SDS_P1;SDS_P2;PMS_P1;PMS_P2;Temp;Humidity;BMP_temperature;BMP_pressure;BME280_temperature;BME280_humidity;BME280_pressure;Samples;Min_cycle;Max_cycle;Signal;HPM_P1;HPM_P2
2022/04/16 00:02:07;;;;;;;0.10;0.10;;;12.40;99.90;;;;;;5001630;28;20557;-66
2022/04/16 00:04:33;;;;;;;0.10;0.10;;;12.50;99.90;;;;;;5012330;28;20029;-65
2022/04/16 00:06:59;;;;;;;0.10;0.10;;;12.50;99.90;;;;;;5011952;28;20022;-65
2022/04/16 00:09:25;;;;;;;0.10;0.10;;;12.40;99.90;;;;;;5012028;28;20207;-66
2022/04/16 00:11:50;;;;;;;0.10;0.10;;;12.30;99.90;;;;;;4994112;28;20030;-66
2022/04/16 00:14:16;;;;;;;0.10;0.10;;;12.30;99.90;;;;;;4997632;28;20026;-66
2022/04/16 00:16:44;;;;;;;0.10;0.10;;;12.30;99.90;;;;;;5012239;28;20108;-64
2022/04/16 00:19:11;;;;;;;0.10;0.10;;;12.30;99.90;;;;;;5011487;28;20022;-65
2022/04/16 00:21:40;;;;;;;0.10;0.10;;;12.30;99.90;;;;;;5011377;28;20042;-66
2022/04/16 00:24:07;;;;;;;0.10;0.10;;;12.20;99.90;;;;;;5012319;28;20018;-68
2022/04/16 00:26:38;;;;;;;0.10;0.10;;;12.20;99.90;;;;;;4994598;28;20022;-69
2022/04/16 00:29:04;;;;;;;0.10;0.10;;;12.10;99.90;;;;;;5006021;28;20056;-70
2022/04/16 00:31:30;;;;;;;0.10;0.10;;;12.00;99.90;;;;;;4998843;28;20026;-65
2022/04/16 00:33:56;;;;;;;0.10;0.10;;;12.00;99.90;;;;;;5011939;28;20048;-65
2022/04/16 00:36:21;;;;;;;0.10;0.10;;;12.00;99.90;;;;;;5006896;28;20072;-67
2022/04/16 00:38:47;;;;;;;0.00;0.00;;;11.90;99.90;;;;;;5003052;28;20549;-67
2022/04/16 00:41:13;;;;;;;0.10;0.10;;;11.90;99.90;;;;;;5011762;28;20026;-66
2022/04/16 00:43:39;;;;;;;0.10;0.10;;;11.80;99.90;;;;;;5012232;28;20030;-68
2022/04/16 00:46:05;;;;;;;0.10;0.10;;;11.60;99.90;;;;;;5011678;28;20030;-66
2022/04/16 00:48:30;;;;;;;0.10;0.10;;;11.60;99.90;;;;;;4995956;28;20509;-66
2022/04/16 00:50:56;;;;;;;0.10;0.10;;;11.50;99.90;;;;;;4994973;28;20496;-65
2022/04/16 00:53:27;;;;;;;0.10;0.10;;;11.50;99.90;;;;;;5003368;28;20041;-67
2022/04/16 00:55:53;;;;;;;0.10;0.10;;;11.50;99.90;;;;;;4992946;28;20518;-67
2022/04/16 00:58:19;;;;;;;0.10;0.10;;;11.50;99.90;;;;;;5009851;28;20045;-65
2022/04/16 01:00:45;;;;;;;0.10;0.10;;;11.50;99.90;;;;;;5011864;28;20123;-64
2022/04/16 01:03:11;;;;;;;0.00;0.00;;;11.50;99.90;;;;;;5012188;28;20354;-67
2022/04/16 01:05:37;;;;;;;0.10;0.10;;;11.50;99.90;;;;;;5010838;28;20101;-67
2022/04/16 01:08:04;;;;;;;0.10;0.10;;;11.50;99.90;;;;;;5011401;28;20486;-69
2022/04/16 01:10:32;;;;;;;0.10;0.10;;;11.50;99.90;;;;;;5011643;28;20030;-68
2022/04/16 01:13:00;;;;;;;0.10;0.10;;;11.50;99.90;;;;;;5010198;28;20117;-65
2022/04/16 01:15:29;;;;;;;0.10;0.10;;;11.50;99.90;;;;;;5004359;28;20033;-66
2022/04/16 01:17:56;;;;;;;0.10;0.10;;;11.50;99.90;;;;;;5011216;28;20456;-67
2022/04/16 01:20:22;;;;;;;0.10;0.10;;;11.40;99.90;;;;;;5010770;28;20040;-67
2022/04/16 01:22:50;;;;;;;0.10;0.10;;;11.50;99.90;;;;;;5011158;28;20026;-66
2022/04/16 01:25:16;;;;;;;0.10;0.10;;;11.50;99.90;;;;;;5009655;28;20026;-68
2022/04/16 01:27:46;;;;;;;0.10;0.10;;;11.60;99.90;;;;;;5013413;28;20021;-66
2022/04/16 01:30:13;;;;;;;0.10;0.10;;;11.50;99.90;;;;;;5010645;28;20026;-68
2022/04/16 01:32:40;;;;;;;0.10;0.10;;;11.60;99.90;;;;;;5009843;28;20104;-65
2022/04/16 01:35:06;;;;;;;0.10;0.10;;;11.60;99.90;;;;;;4997081;28;20033;-65
2022/04/16 01:37:34;;;;;;;0.10;0.10;;;11.50;99.90;;;;;;4991119;28;20022;-67
2022/04/16 01:40:01;;;;;;;0.10;0.10;;;11.40;99.90;;;;;;4998602;28;20401;-66
2022/04/16 01:42:29;;;;;;;0.10;0.10;;;11.40;99.90;;;;;;5009642;28;20029;-66
2022/04/16 01:44:56;;;;;;;0.10;0.10;;;11.40;99.90;;;;;;5010512;28;20096;-65
2022/04/16 01:47:22;;;;;;;0.10;0.10;;;11.30;99.90;;;;;;5009293;28;20516;-66
2022/04/16 01:49:47;;;;;;;0.10;0.10;;;11.30;99.90;;;;;;5010208;28;20026;-65
2022/04/16 01:52:13;;;;;;;0.10;0.10;;;11.30;99.90;;;;;;5009715;28;20068;-69
2022/04/16 01:54:41;;;;;;;0.43;0.43;;;11.30;99.90;;;;;;5010289;28;20084;-65
2022/04/16 01:57:07;;;;;;;0.10;0.10;;;11.20;99.90;;;;;;5009645;28;20208;-64
2022/04/16 01:59:32;;;;;;;0.10;0.10;;;11.20;99.90;;;;;;5009106;28;20037;-65
2022/04/16 02:01:58;;;;;;;0.10;0.10;;;11.20;99.90;;;;;;5009237;28;20037;-66
2022/04/16 02:04:24;;;;;;;0.10;0.10;;;11.20;99.90;;;;;;5009821;28;20080;-65
2022/04/16 02:06:50;;;;;;;0.10;0.10;;;11.40;99.90;;;;;;4990404;28;20033;-66
2022/04/16 02:09:17;;;;;;;0.10;0.10;;;11.30;99.90;;;;;;4998394;28;20057;-64
2022/04/16 02:11:43;;;;;;;0.10;0.10;;;11.30;99.90;;;;;;5009834;28;20053;-66
2022/04/16 02:14:09;;;;;;;0.10;0.10;;;11.20;99.90;;;;;;5008782;28;20568;-66
2022/04/16 02:16:34;;;;;;;0.10;0.10;;;11.20;99.90;;;;;;4990424;28;20153;-65
2022/04/16 02:19:00;;;;;;;0.10;0.10;;;11.10;99.90;;;;;;5009928;28;20485;-66
2022/04/16 02:21:27;;;;;;;0.10;0.10;;;11.10;99.90;;;;;;5009723;28;20038;-65
2022/04/16 02:23:54;;;;;;;0.10;0.10;;;11.10;99.90;;;;;;5009000;28;20131;-66
2022/04/16 02:26:22;;;;;;;0.10;0.10;;;11.10;99.90;;;;;;5009913;28;20025;-66
2022/04/16 02:28:48;;;;;;;0.10;0.10;;;11.00;99.90;;;;;;5007780;28;20018;-68
2022/04/16 02:31:14;;;;;;;0.10;0.10;;;10.80;99.90;;;;;;5009559;28;20052;-67
2022/04/16 02:33:40;;;;;;;0.10;0.10;;;10.60;99.90;;;;;;5009462;28;20096;-66
2022/04/16 02:36:07;;;;;;;0.00;0.00;;;10.50;99.90;;;;;;5009743;28;20029;-66
2022/04/16 02:38:36;;;;;;;0.10;0.10;;;10.50;99.90;;;;;;5010059;28;20049;-66
2022/04/16 02:41:01;;;;;;;0.10;0.10;;;10.50;99.90;;;;;;5009606;28;20033;-65
2022/04/16 02:43:27;;;;;;;0.10;0.10;;;10.50;99.90;;;;;;5011011;28;20026;-65
2022/04/16 02:48:37;;;;;;;0.10;0.10;;;10.50;99.90;;;;;;5009956;28;20080;-66
2022/04/16 02:51:02;;;;;;;0.10;0.10;;;10.40;99.90;;;;;;5008925;28;20030;-66
2022/04/16 02:53:31;;;;;;;0.03;0.03;;;10.40;99.90;;;;;;5009874;28;20090;-66
2022/04/16 02:55:57;;;;;;;0.10;0.10;;;10.40;99.90;;;;;;5009563;28;20069;-66
2022/04/16 02:58:22;;;;;;;0.10;0.10;;;10.40;99.90;;;;;;5008736;28;20616;-66
2022/04/16 03:00:49;;;;;;;0.10;0.10;;;10.40;99.90;;;;;;5008586;28;20026;-65
2022/04/16 03:03:15;;;;;;;0.20;0.20;;;10.30;99.90;;;;;;5009608;28;20029;-65
2022/04/16 03:05:41;;;;;;;0.10;0.10;;;10.30;99.90;;;;;;5009242;28;20026;-69
2022/04/16 03:08:09;;;;;;;0.10;0.10;;;10.20;99.90;;;;;;5008989;28;20045;-66
2022/04/16 03:10:35;;;;;;;0.10;0.10;;;10.20;99.90;;;;;;5008140;28;20026;-66
2022/04/16 03:13:01;;;;;;;0.10;0.10;;;10.20;99.90;;;;;;5012959;28;20033;-66
2022/04/16 03:18:11;;;;;;;0.10;0.10;;;10.20;99.90;;;;;;4997526;28;20045;-66
2022/04/16 03:20:39;;;;;;;0.10;0.10;;;10.20;99.90;;;;;;5000271;28;20022;-65
2022/04/16 03:23:04;;;;;;;0.10;0.10;;;10.20;99.90;;;;;;5013165;28;20017;-67
2022/04/16 03:25:33;;;;;;;0.00;0.00;;;10.10;99.90;;;;;;4990287;28;20408;-66
2022/04/16 03:27:58;;;;;;;0.10;0.10;;;10.10;99.90;;;;;;5006053;28;20022;-66
2022/04/16 03:30:25;;;;;;;0.10;0.10;;;10.10;99.90;;;;;;5004403;28;20056;-65
2022/04/16 03:32:51;;;;;;;0.10;0.10;;;10.20;99.90;;;;;;5013067;28;20033;-65
2022/04/16 03:35:19;;;;;;;0.10;0.10;;;10.30;99.90;;;;;;5012311;28;20037;-68
2022/04/16 03:37:45;;;;;;;0.10;0.10;;;10.20;99.90;;;;;;4995270;28;20836;-66
2022/04/16 03:40:12;;;;;;;0.10;0.10;;;10.20;99.90;;;;;;5013723;28;20547;-65
2022/04/16 03:42:45;;;;;;;0.10;0.10;;;10.20;99.90;;;;;;5012265;28;20056;-67
2022/04/16 03:45:20;;;;;;;0.10;0.10;;;10.20;99.90;;;;;;4977788;28;20037;-66
2022/04/16 03:47:48;;;;;;;0.10;0.10;;;10.20;99.90;;;;;;4975221;28;20069;-65
2022/04/16 03:50:14;;;;;;;0.10;0.10;;;10.30;99.90;;;;;;4992679;28;20064;-67
2022/04/16 03:52:44;;;;;;;0.10;0.10;;;10.10;99.90;;;;;;4993228;28;20058;-65
2022/04/16 04:00:52;;;;;;;0.10;0.10;;;10.00;99.90;;;;;;5011208;28;20045;-67
2022/04/16 04:03:18;;;;;;;0.10;0.10;;;9.90;99.90;;;;;;5012097;28;20030;-65
2022/04/16 04:05:53;;;;;;;0.10;0.10;;;9.90;99.90;;;;;;5012108;28;20025;-65
2022/04/16 04:08:20;;;;;;;0.10;0.10;;;9.80;99.90;;;;;;5010977;28;20149;-66
2022/04/16 04:10:46;;;;;;;0.10;0.10;;;9.90;99.90;;;;;;4994860;28;20033;-69
2022/04/16 04:13:13;;;;;;;0.10;0.10;;;9.90;99.90;;;;;;5012174;28;20026;-68
2022/04/16 04:15:39;;;;;;;0.10;0.10;;;9.70;99.90;;;;;;5012082;28;20028;-68
2022/04/16 04:18:05;;;;;;;0.10;0.10;;;9.70;99.90;;;;;;5011706;28;20040;-68
2022/04/16 04:20:31;;;;;;;0.10;0.10;;;9.70;99.90;;;;;;5010477;28;20026;-69
2022/04/16 04:22:57;;;;;;;0.10;0.10;;;9.60;99.90;;;;;;5004512;28;20213;-69
2022/04/16 04:25:23;;;;;;;0.10;0.10;;;9.60;99.90;;;;;;5012255;28;20499;-69
2022/04/16 04:27:49;;;;;;;0.10;0.10;;;9.60;99.90;;;;;;5011700;28;20053;-65
2022/04/16 04:30:14;;;;;;;0.10;0.10;;;9.70;99.90;;;;;;5011148;28;20026;-67
2022/04/16 04:32:40;;;;;;;0.10;0.10;;;9.80;99.90;;;;;;5011853;28;20028;-67
2022/04/16 04:35:07;;;;;;;0.10;0.10;;;9.70;99.90;;;;;;5011962;28;20033;-67
2022/04/16 04:37:33;;;;;;;0.10;0.10;;;9.80;99.90;;;;;;5009430;28;20038;-66
2022/04/16 04:39:59;;;;;;;0.10;0.10;;;9.70;99.90;;;;;;5011527;28;20033;-67
2022/04/16 04:42:26;;;;;;;0.10;0.10;;;9.70;99.90;;;;;;5011899;28;20454;-67
2022/04/16 04:44:53;;;;;;;0.10;0.10;;;9.70;99.90;;;;;;5011622;28;20694;-67
2022/04/16 04:47:18;;;;;;;0.10;0.10;;;9.70;99.90;;;;;;5008210;28;20113;-66
2022/04/16 04:49:44;;;;;;;0.10;0.10;;;9.80;99.90;;;;;;4996566;28;20109;-66
2022/04/16 04:52:10;;;;;;;0.10;0.10;;;9.70;99.90;;;;;;5023106;22;20513;-62
2022/04/16 04:54:35;;;;;;;0.10;0.10;;;9.80;99.90;;;;;;5007636;28;20032;-62
2022/04/16 04:57:04;;;;;;;0.10;0.10;;;9.80;99.90;;;;;;5011580;28;20504;-62
2022/04/16 04:59:30;;;;;;;0.10;0.10;;;9.80;99.90;;;;;;5006534;28;20018;-62
2022/04/16 05:01:55;;;;;;;0.10;0.10;;;9.70;99.90;;;;;;4991809;28;20117;-61
2022/04/16 05:04:21;;;;;;;0.10;0.10;;;9.70;99.90;;;;;;4991987;28;20534;-63
2022/04/16 05:06:47;;;;;;;0.10;0.10;;;9.70;99.90;;;;;;4994559;28;20470;-65
2022/04/16 05:09:12;;;;;;;0.10;0.10;;;9.80;99.90;;;;;;4998553;28;20019;-62
2022/04/16 05:11:38;;;;;;;0.10;0.10;;;9.80;99.90;;;;;;4992881;28;20082;-62
2022/04/16 05:14:04;;;;;;;0.10;0.10;;;9.80;99.90;;;;;;4994615;28;20437;-62
2022/04/16 05:16:29;;;;;;;0.10;0.10;;;9.80;99.90;;;;;;4996895;28;20057;-63
2022/04/16 05:18:55;;;;;;;0.08;0.08;;;9.80;99.90;;;;;;4998558;28;20050;-62
2022/04/16 05:21:20;;;;;;;0.10;0.10;;;9.80;99.90;;;;;;4999692;28;20538;-63
2022/04/16 05:23:46;;;;;;;0.10;0.10;;;9.80;99.90;;;;;;4997797;28;20041;-61
2022/04/16 05:26:12;;;;;;;0.20;0.20;;;9.80;99.90;;;;;;5000750;28;20501;-61
2022/04/16 05:28:38;;;;;;;0.10;0.10;;;9.70;99.90;;;;;;4996711;28;20050;-60
2022/04/16 05:31:05;;;;;;;0.10;0.10;;;9.80;99.90;;;;;;4997728;28;20026;-66
2022/04/16 05:36:16;;;;;;;0.10;0.10;;;9.80;99.90;;;;;;4996692;28;20037;-63
2022/04/16 05:38:42;;;;;;;0.17;0.17;;;9.90;99.90;;;;;;5000710;28;20084;-63
2022/04/16 05:41:08;;;;;;;1.23;1.23;;;10.00;99.90;;;;;;4997985;28;20021;-63
2022/04/16 05:43:34;;;;;;;0.10;0.10;;;10.00;99.90;;;;;;4997569;28;20581;-61
2022/04/16 05:45:59;;;;;;;0.10;0.10;;;9.90;99.90;;;;;;4998948;28;20050;-63
2022/04/16 05:48:25;;;;;;;0.10;0.10;;;10.00;99.90;;;;;;4994971;28;20060;-62
2022/04/16 05:50:51;;;;;;;1.10;1.10;;;10.00;99.90;;;;;;5002086;28;20041;-62
2022/04/16 05:53:17;;;;;;;0.10;0.10;;;10.00;99.90;;;;;;5002207;28;20030;-62
2022/04/16 05:55:48;;;;;;;0.10;0.10;;;10.10;99.90;;;;;;4998710;28;20514;-63
2022/04/16 05:58:15;;;;;;;0.10;0.10;;;10.30;99.90;;;;;;5000866;28;20033;-63
2022/04/16 06:00:41;;;;;;;0.10;0.10;;;10.30;99.90;;;;;;4999661;28;20030;-62
2022/04/16 06:03:07;;;;;;;0.10;0.10;;;10.40;99.90;;;;;;4998133;28;20139;-62
2022/04/16 06:05:33;;;;;;;0.00;0.00;;;10.50;99.90;;;;;;5003214;28;20037;-63
2022/04/16 06:07:59;;;;;;;0.10;0.10;;;10.50;99.90;;;;;;4991432;28;20030;-62
2022/04/16 06:10:25;;;;;;;0.10;0.10;;;10.50;99.90;;;;;;4998923;28;20030;-62
2022/04/16 06:12:51;;;;;;;0.10;0.10;;;10.40;99.90;;;;;;4997116;28;20072;-63
2022/04/16 06:15:17;;;;;;;0.10;0.10;;;10.50;99.90;;;;;;4999704;28;20505;-63
2022/04/16 06:17:42;;;;;;;0.20;0.20;;;10.50;99.90;;;;;;5000218;28;20030;-63
2022/04/16 06:20:09;;;;;;;0.10;0.10;;;10.30;99.90;;;;;;4999880;28;20044;-65
2022/04/16 06:22:35;;;;;;;0.10;0.10;;;10.20;99.90;;;;;;5000937;28;20501;-61
2022/04/16 06:25:01;;;;;;;0.10;0.10;;;10.40;99.90;;;;;;4996637;28;20031;-62
2022/04/16 06:27:27;;;;;;;0.10;0.10;;;10.40;99.90;;;;;;4993252;28;20033;-64
2022/04/16 06:29:52;;;;;;;0.10;0.10;;;10.40;99.90;;;;;;4994075;28;20029;-63
2022/04/16 06:32:18;;;;;;;0.10;0.10;;;10.40;99.90;;;;;;4995786;28;20481;-61
2022/04/16 06:34:44;;;;;;;0.10;0.10;;;10.30;99.90;;;;;;4993740;28;20030;-63
2022/04/16 06:37:10;;;;;;;0.10;0.10;;;10.30;99.90;;;;;;4998991;28;20034;-63
2022/04/16 06:39:35;;;;;;;0.10;0.10;;;10.40;99.90;;;;;;5000337;28;20026;-63
2022/04/16 06:42:01;;;;;;;0.10;0.10;;;10.50;99.90;;;;;;4996422;28;20031;-63
2022/04/16 06:44:27;;;;;;;0.10;0.10;;;10.50;99.90;;;;;;5002161;28;20083;-63
2022/04/16 06:46:54;;;;;;;0.10;0.10;;;10.50;99.90;;;;;;5000913;28;20034;-62
2022/04/16 06:49:20;;;;;;;0.10;0.10;;;10.40;99.90;;;;;;4992755;28;20107;-62
2022/04/16 06:51:46;;;;;;;0.10;0.10;;;10.50;99.90;;;;;;4994135;28;20125;-63
2022/04/16 06:54:11;;;;;;;0.10;0.10;;;10.50;99.90;;;;;;4995668;28;20104;-63
2022/04/16 06:56:37;;;;;;;0.10;0.10;;;10.40;99.90;;;;;;4998265;28;20445;-61
2022/04/16 06:59:03;;;;;;;1.10;1.10;;;10.50;99.90;;;;;;5000023;28;20025;-63
2022/04/16 07:01:28;;;;;;;0.10;0.10;;;10.40;99.90;;;;;;4994256;28;20509;-63
2022/04/16 07:03:57;;;;;;;0.00;0.00;;;10.50;99.90;;;;;;4994074;28;20030;-65
2022/04/16 07:06:25;;;;;;;0.10;0.10;;;10.40;99.90;;;;;;4991863;28;20026;-64
2022/04/16 07:08:51;;;;;;;0.10;0.10;;;10.50;99.90;;;;;;4998100;28;20041;-62
2022/04/16 07:11:16;;;;;;;0.10;0.10;;;10.60;99.90;;;;;;5001608;28;20104;-62
2022/04/16 07:13:42;;;;;;;0.10;0.10;;;10.60;99.90;;;;;;5000990;28;20026;-62
2022/04/16 07:16:08;;;;;;;0.10;0.10;;;10.60;99.90;;;;;;5004957;28;20034;-62
2022/04/16 07:18:33;;;;;;;0.43;0.43;;;10.60;99.90;;;;;;4998579;28;20397;-64
2022/04/16 07:20:59;;;;;;;0.10;0.10;;;10.60;99.90;;;;;;5009009;28;20033;-63
2022/04/16 07:23:24;;;;;;;0.10;0.10;;;10.70;99.90;;;;;;5005389;28;20022;-63
2022/04/16 07:25:50;;;;;;;0.10;0.10;;;10.60;99.90;;;;;;4996076;28;20091;-63
2022/04/16 07:28:21;;;;;;;0.10;0.10;;;10.70;99.90;;;;;;5009797;28;20037;-62
2022/04/16 07:30:50;;;;;;;0.10;0.10;;;10.60;99.90;;;;;;5007679;28;20339;-63
2022/04/16 07:33:16;;;;;;;0.10;0.10;;;10.60;99.90;;;;;;4997827;28;20030;-62
2022/04/16 07:35:45;;;;;;;0.10;0.10;;;10.80;99.90;;;;;;4987747;28;20084;-63
2022/04/16 07:38:11;;;;;;;0.10;0.10;;;10.80;99.90;;;;;;4987257;28;20030;-62
2022/04/16 07:40:37;;;;;;;0.10;0.10;;;10.90;99.90;;;;;;4987203;28;20192;-63
2022/04/16 07:43:03;;;;;;;0.10;0.10;;;11.00;99.90;;;;;;4987255;28;20149;-65
2022/04/16 07:45:29;;;;;;;0.10;0.10;;;11.00;99.90;;;;;;4989319;28;20026;-62
2022/04/16 07:47:56;;;;;;;0.00;0.00;;;11.10;99.90;;;;;;4994194;28;20033;-68
2022/04/16 07:50:27;;;;;;;0.10;0.10;;;11.10;99.90;;;;;;5006340;28;20029;-64
2022/04/16 07:52:55;;;;;;;0.00;0.00;;;11.20;99.90;;;;;;4995848;28;20042;-69
2022/04/16 07:55:22;;;;;;;0.10;0.10;;;11.30;99.90;;;;;;4987027;28;20041;-64
2022/04/16 07:57:48;;;;;;;0.00;0.00;;;11.30;99.90;;;;;;4995926;28;20109;-64
2022/04/16 08:00:15;;;;;;;0.10;0.10;;;11.40;99.90;;;;;;5001962;28;20036;-64
2022/04/16 08:02:40;;;;;;;0.00;0.00;;;11.40;99.90;;;;;;5003328;28;20026;-64
2022/04/16 08:05:07;;;;;;;0.10;0.10;;;11.60;99.90;;;;;;4992233;28;20018;-63
2022/04/16 08:07:33;;;;;;;0.10;0.10;;;11.70;99.90;;;;;;4992421;28;20030;-65
2022/04/16 08:09:58;;;;;;;0.10;0.10;;;11.90;99.90;;;;;;5004068;28;20081;-63
2022/04/16 08:12:25;;;;;;;0.00;0.00;;;12.00;99.90;;;;;;4995035;28;20388;-64
2022/04/16 08:14:51;;;;;;;0.10;0.10;;;11.90;99.90;;;;;;4995034;28;20485;-65
2022/04/16 08:17:17;;;;;;;0.10;0.10;;;11.90;99.90;;;;;;4992722;28;20022;-65
2022/04/16 08:19:42;;;;;;;0.10;0.10;;;12.00;99.90;;;;;;4995085;28;20375;-65
2022/04/16 08:22:11;;;;;;;0.03;0.03;;;12.00;99.90;;;;;;5000500;28;20509;-64
2022/04/16 08:27:03;;;;;;;0.20;0.20;;;12.20;99.90;;;;;;5001102;28;20380;-64
2022/04/16 08:29:29;;;;;;;0.10;0.10;;;12.30;99.90;;;;;;4994847;28;20026;-64
2022/04/16 08:31:55;;;;;;;0.10;0.10;;;12.20;99.90;;;;;;4996919;28;20048;-64
2022/04/16 08:34:20;;;;;;;0.10;0.10;;;12.20;99.90;;;;;;4999339;28;20033;-64
2022/04/16 08:36:46;;;;;;;0.10;0.10;;;12.40;99.90;;;;;;4999199;28;20390;-63
2022/04/16 08:39:11;;;;;;;0.10;0.10;;;12.50;99.90;;;;;;4985821;28;20030;-63
2022/04/16 08:41:39;;;;;;;0.10;0.10;;;12.40;99.90;;;;;;4999105;28;20743;-64
2022/04/16 08:44:05;;;;;;;0.10;0.10;;;12.50;99.90;;;;;;4996265;28;20029;-65
2022/04/16 08:46:32;;;;;;;0.10;0.10;;;12.50;99.90;;;;;;4995183;28;20121;-64
2022/04/16 08:48:59;;;;;;;0.00;0.00;;;12.60;99.90;;;;;;4994585;28;20101;-65
2022/04/16 08:51:31;;;;;;;0.10;0.10;;;12.50;99.90;;;;;;4999528;28;20076;-64
2022/04/16 08:53:56;;;;;;;0.10;0.10;;;12.50;99.90;;;;;;5001670;28;20497;-63
2022/04/16 08:56:22;;;;;;;0.10;0.10;;;12.50;99.90;;;;;;4985333;28;20072;-65
2022/04/16 08:58:48;;;;;;;0.10;0.10;;;12.60;99.90;;;;;;4996076;28;20468;-64
2022/04/16 09:01:13;;;;;;;0.03;0.03;;;12.70;99.90;;;;;;4997518;28;20037;-65
2022/04/16 09:03:40;;;;;;;0.10;0.10;;;12.80;99.90;;;;;;4998388;28;20470;-65
2022/04/16 09:06:07;;;;;;;0.10;0.10;;;12.60;99.90;;;;;;5001868;28;20056;-63
2022/04/16 09:08:34;;;;;;;0.10;0.10;;;12.60;99.90;;;;;;4999914;28;20085;-64
2022/04/16 09:11:11;;;;;;;0.40;0.40;;;12.60;99.90;;;;;;4999010;28;20026;-65
2022/04/16 09:13:49;;;;;;;0.00;0.00;;;12.60;99.90;;;;;;5001738;28;20065;-67
2022/04/16 09:16:15;;;;;;;0.10;0.10;;;12.60;99.90;;;;;;4991761;28;20117;-64
2022/04/16 09:18:55;;;;;;;0.10;0.10;;;12.50;99.90;;;;;;4990935;28;20030;-65
2022/04/16 09:21:25;;;;;;;0.10;0.10;;;12.40;99.90;;;;;;4992534;28;20034;-66
2022/04/16 09:23:57;;;;;;;0.10;0.10;;;12.40;99.90;;;;;;5000901;28;20022;-65
2022/04/16 09:26:27;;;;;;;0.10;0.10;;;12.30;99.90;;;;;;4998889;28;20023;-64
2022/04/16 09:28:53;;;;;;;0.10;0.10;;;12.40;99.90;;;;;;4998540;28;20026;-65
2022/04/16 09:31:27;;;;;;;0.10;0.10;;;12.20;99.90;;;;;;4995704;28;20497;-65
2022/04/16 09:33:52;;;;;;;0.10;0.10;;;12.30;99.90;;;;;;4994524;28;20118;-64
2022/04/16 09:36:28;;;;;;;0.10;0.10;;;12.30;99.90;;;;;;4999599;28;20113;-65
2022/04/16 09:39:03;;;;;;;0.43;0.43;;;12.20;99.90;;;;;;4993274;28;20459;-64
2022/04/16 09:41:38;;;;;;;0.10;0.10;;;12.30;99.90;;;;;;4998542;28;20038;-63
2022/04/16 09:44:04;;;;;;;0.13;0.13;;;12.20;99.90;;;;;;4999810;28;20030;-63
2022/04/16 09:46:31;;;;;;;0.10;0.10;;;12.20;99.90;;;;;;4998577;28;20034;-64
2022/04/16 09:49:04;;;;;;;0.10;0.10;;;12.20;99.90;;;;;;4995988;28;20022;-65
2022/04/16 09:51:34;;;;;;;0.10;0.10;;;12.20;99.90;;;;;;4999100;28;20030;-64
2022/04/16 09:54:04;;;;;;;0.10;0.10;;;12.30;99.90;;;;;;4994839;28;20057;-64
2022/04/16 09:56:33;;;;;;;0.10;0.10;;;12.20;99.90;;;;;;4999925;28;20030;-63
2022/04/16 09:59:01;;;;;;;0.10;0.10;;;12.10;99.90;;;;;;4995682;28;20493;-65
2022/04/16 10:01:28;;;;;;;0.08;0.08;;;12.10;99.90;;;;;;4993793;28;20042;-64
2022/04/16 10:03:55;;;;;;;0.10;0.10;;;12.30;99.90;;;;;;4998234;28;20021;-63
2022/04/16 10:06:21;;;;;;;0.10;0.10;;;12.50;99.90;;;;;;4997843;28;20041;-65
2022/04/16 10:08:49;;;;;;;0.10;0.10;;;12.60;99.90;;;;;;4997885;28;20465;-65
2022/04/16 10:11:32;;;;;;;0.10;0.10;;;12.90;99.90;;;;;;4994676;28;20033;-64
2022/04/16 10:14:06;;;;;;;0.10;0.10;;;13.20;99.90;;;;;;4997100;28;20030;-64
2022/04/16 10:16:45;;;;;;;0.10;0.10;;;13.40;99.90;;;;;;4994801;28;20297;-65
2022/04/16 10:19:15;;;;;;;0.10;0.10;;;13.50;99.90;;;;;;4996456;28;20085;-64
2022/04/16 10:21:41;;;;;;;0.00;0.00;;;13.70;99.90;;;;;;5003305;28;20371;-64
2022/04/16 10:24:07;;;;;;;0.10;0.10;;;13.80;99.90;;;;;;4995505;28;20018;-65
2022/04/16 10:26:43;;;;;;;0.10;0.10;;;13.70;99.90;;;;;;4997441;28;20109;-64
2022/04/16 10:29:09;;;;;;;0.10;0.10;;;13.40;99.90;;;;;;4995911;28;20128;-66
2022/04/16 10:31:48;;;;;;;0.00;0.00;;;13.50;99.90;;;;;;4995559;28;20113;-65
2022/04/16 10:34:16;;;;;;;0.10;0.10;;;13.50;99.90;;;;;;5000368;28;20229;-64
2022/04/16 10:36:54;;;;;;;0.30;0.30;;;13.70;99.90;;;;;;4998356;28;20529;-65
2022/04/16 10:39:25;;;;;;;0.00;0.00;;;13.80;99.90;;;;;;4998671;28;20057;-65
2022/04/16 10:42:00;;;;;;;0.00;0.00;;;13.70;99.90;;;;;;4998088;28;20054;-65
2022/04/16 10:44:27;;;;;;;0.22;0.22;;;13.70;99.90;;;;;;4996600;28;20440;-64
2022/04/16 10:46:54;;;;;;;0.10;0.10;;;13.80;99.90;;;;;;4996025;28;20049;-64
2022/04/16 10:49:24;;;;;;;0.17;0.17;;;13.80;99.90;;;;;;4997287;28;20120;-63
2022/04/16 10:51:52;;;;;;;0.10;0.10;;;13.70;99.90;;;;;;4996288;28;20103;-66
2022/04/16 10:54:34;;;;;;;0.00;0.00;;;13.60;99.90;;;;;;4993342;28;20022;-64
2022/04/16 10:57:01;;;;;;;0.10;0.10;;;13.60;99.90;;;;;;4994002;28;20037;-65
2022/04/16 10:59:41;;;;;;;0.10;0.10;;;13.60;99.90;;;;;;4997182;28;20026;-67
2022/04/16 11:02:22;;;;;;;0.00;0.00;;;13.80;99.90;;;;;;5002197;28;20115;-67
2022/04/16 11:04:59;;;;;;;0.08;0.08;;;13.90;99.90;;;;;;4997755;28;20057;-66
2022/04/16 11:07:26;;;;;;;0.10;0.10;;;14.10;99.90;;;;;;4999674;28;20030;-66
2022/04/16 11:09:52;;;;;;;0.40;0.40;;;14.00;99.90;;;;;;4995480;28;20027;-66
2022/04/16 11:12:22;;;;;;;0.10;0.10;;;14.20;99.90;;;;;;5006238;28;20545;-64
2022/04/16 11:14:52;;;;;;;0.00;0.00;;;14.10;99.90;;;;;;4993855;28;20035;-64
2022/04/16 11:17:19;;;;;;;0.10;0.10;;;14.30;99.90;;;;;;4999673;28;20244;-63
2022/04/16 11:20:02;;;;;;;0.10;0.10;;;14.30;99.90;;;;;;5001288;28;20137;-66
2022/04/16 11:22:28;;;;;;;0.10;0.10;;;14.40;99.90;;;;;;5003038;28;20394;-65
2022/04/16 11:24:53;;;;;;;0.10;0.10;;;14.50;99.90;;;;;;4990777;28;20039;-64
2022/04/16 11:35:58;;;;;;;0.10;0.10;;;14.30;99.90;;;;;;4999071;28;20176;-63
2022/04/16 11:38:35;;;;;;;0.03;0.03;;;14.20;99.90;;;;;;5002894;28;20112;-65
2022/04/16 11:41:06;;;;;;;0.10;0.10;;;14.10;99.40;;;;;;4996315;28;20145;-66
2022/04/16 11:43:33;;;;;;;0.10;0.10;;;14.10;99.20;;;;;;4998471;28;20030;-66
2022/04/16 11:46:01;;;;;;;0.00;0.00;;;14.20;99.20;;;;;;5002535;28;20022;-68
2022/04/16 11:48:27;;;;;;;0.10;0.10;;;14.30;99.10;;;;;;4996471;28;20018;-65
2022/04/16 11:50:53;;;;;;;0.10;0.10;;;14.40;99.00;;;;;;4995839;28;20104;-67
2022/04/16 11:53:19;;;;;;;0.00;0.00;;;14.50;99.70;;;;;;5011840;28;20176;-64
2022/04/16 11:55:51;;;;;;;0.00;0.00;;;14.40;99.40;;;;;;5008859;28;20037;-65
2022/04/16 11:58:18;;;;;;;0.10;0.10;;;14.40;98.40;;;;;;4997730;28;20022;-65
2022/04/16 12:00:51;;;;;;;0.00;0.00;;;14.50;97.60;;;;;;4997111;28;20145;-65
2022/04/16 12:03:18;;;;;;;0.10;0.10;;;14.60;96.80;;;;;;5012034;28;20046;-65
2022/04/16 12:05:44;;;;;;;0.10;0.10;;;14.50;96.20;;;;;;4998332;28;20034;-65
2022/04/16 12:08:11;;;;;;;0.10;0.10;;;14.40;95.30;;;;;;4998489;28;20388;-65
2022/04/16 12:10:39;;;;;;;0.10;0.10;;;14.40;95.10;;;;;;5002510;28;20022;-65
2022/04/16 12:13:10;;;;;;;0.10;0.10;;;14.50;94.60;;;;;;4996481;28;20027;-66
2022/04/16 12:15:40;;;;;;;0.10;0.10;;;14.50;93.80;;;;;;4994485;28;20037;-65
2022/04/16 12:18:15;;;;;;;0.52;0.52;;;14.60;93.90;;;;;;4997261;28;20109;-64
2022/04/16 12:20:43;;;;;;;0.10;0.10;;;14.50;93.20;;;;;;5009690;28;20030;-65
2022/04/16 12:23:14;;;;;;;0.10;0.10;;;14.50;92.80;;;;;;5000477;28;20022;-64
2022/04/16 12:25:41;;;;;;;0.10;0.10;;;14.60;92.40;;;;;;4993602;28;20026;-64
2022/04/16 12:28:11;;;;;;;0.20;0.20;;;14.60;92.40;;;;;;4998349;28;20030;-65
2022/04/16 12:30:37;;;;;;;0.10;0.10;;;14.70;92.40;;;;;;5000166;28;20104;-65
2022/04/16 12:33:05;;;;;;;0.05;0.05;;;15.20;92.50;;;;;;4992933;28;20401;-65
2022/04/16 12:35:35;;;;;;;0.10;0.10;;;15.30;90.10;;;;;;5011721;28;20037;-65
2022/04/16 12:38:02;;;;;;;0.03;0.03;;;15.30;88.80;;;;;;4994298;28;20441;-65
2022/04/16 12:40:29;;;;;;;0.10;0.10;;;15.40;87.00;;;;;;5001649;28;20030;-65
2022/04/16 12:42:56;;;;;;;0.10;0.10;;;16.90;82.30;;;;;;4999232;28;20022;-64
2022/04/16 12:45:23;;;;;;;0.10;0.10;;;17.70;75.90;;;;;;5003923;28;20025;-64
2022/04/16 12:47:49;;;;;;;0.00;0.00;;;17.90;73.80;;;;;;5000818;28;20035;-66
2022/04/16 12:50:15;;;;;;;0.00;0.00;;;19.50;67.30;;;;;;5003711;28;20023;-65
2022/04/16 12:52:41;;;;;;;0.00;0.00;;;19.10;60.80;;;;;;4992242;28;20036;-66
2022/04/16 12:55:07;;;;;;;0.10;0.10;;;18.60;61.20;;;;;;4991916;28;20030;-66
2022/04/16 12:57:33;;;;;;;0.00;0.00;;;19.50;58.30;;;;;;4996209;28;20026;-66
2022/04/16 12:59:59;;;;;;;0.00;0.00;;;20.20;56.50;;;;;;5000681;28;20517;-63
2022/04/16 13:02:25;;;;;;;0.00;0.00;;;21.10;54.70;;;;;;5001421;28;20053;-69
2022/04/16 13:04:51;;;;;;;0.00;0.00;;;20.70;53.70;;;;;;4996089;28;20076;-66
2022/04/16 13:07:17;;;;;;;0.00;0.00;;;21.30;52.50;;;;;;4998385;28;20073;-66
2022/04/16 13:09:43;;;;;;;0.00;0.00;;;21.90;51.30;;;;;;5005336;28;20030;-67
2022/04/16 13:12:09;;;;;;;0.00;0.00;;;22.10;50.30;;;;;;5004921;28;20030;-65
2022/04/16 13:14:35;;;;;;;0.00;0.00;;;22.70;48.90;;;;;;4995319;28;20026;-65